Time;durP1;ratioP1;P1;durP2;ratioP2;P2;SDS_P1;SDS_P2;PMS_P1;PMS_P2;Temp;Humidity;BMP_temperature;BMP_pressure;BME280_temperature;BME280_humidity;BME280_pressure;Samples;Min_cycle;Max_cycle;Signal;HPM_P1;HPM_P2
2021/12/24 00:01:01;;;;;;;213.85;60.50;;;5.90;99.90;;;;;;4955681;28;20582;-88
2021/12/24 00:03:27;;;;;;;230.43;63.10;;;5.90;99.90;;;;;;4955794;29;20047;-88
2021/12/24 00:05:53;;;;;;;208.20;59.67;;;5.90;99.90;;;;;;4955544;29;20431;-88
2021/12/24 00:08:19;;;;;;;223.93;62.75;;;6.50;99.90;;;;;;4939809;29;20035;-88
2021/12/24 00:10:48;;;;;;;210.70;60.28;;;5.90;99.90;;;;;;4954536;29;20058;-88
2021/12/24 00:13:16;;;;;;;208.85;62.05;;;6.00;99.90;;;;;;4940223;29;20043;-88
2021/12/24 00:18:36;;;;;;;226.00;62.55;;;6.10;99.90;;;;;;4928603;29;20055;-87
2021/12/24 00:37:08;;;;;;;237.68;64.05;;;6.30;99.90;;;;;;4958405;28;20494;-88
2021/12/24 00:39:39;;;;;;;236.57;61.97;;;6.50;99.90;;;;;;4958118;28;20034;-88
2021/12/24 00:42:05;;;;;;;212.05;57.55;;;6.30;99.90;;;;;;4942537;28;20051;-88
2021/12/24 00:44:30;;;;;;;200.40;57.85;;;6.40;99.90;;;;;;4942988;28;20471;-88
2021/12/24 00:46:56;;;;;;;209.07;56.05;;;6.40;99.90;;;;;;4926594;28;20078;-88
2021/12/24 00:49:22;;;;;;;213.23;57.20;;;6.30;99.90;;;;;;4926482;28;20042;-88
2021/12/24 00:56:58;;;;;;;189.23;55.22;;;6.40;99.90;;;;;;4959724;28;20434;-88
2021/12/24 00:59:24;;;;;;;220.27;57.08;;;6.50;99.90;;;;;;4942184;28;20502;-88
2021/12/24 01:01:49;;;;;;;183.43;54.45;;;6.40;99.90;;;;;;4957702;28;20042;-88
2021/12/24 01:04:15;;;;;;;151.43;48.53;;;6.50;99.90;;;;;;4958396;28;20395;-88
2021/12/24 01:06:41;;;;;;;155.10;49.33;;;6.50;99.90;;;;;;4941518;28;20050;-88
2021/12/24 01:09:07;;;;;;;150.32;48.15;;;6.60;99.90;;;;;;4973794;28;20047;-88
2021/12/24 01:11:32;;;;;;;140.25;45.70;;;6.50;99.90;;;;;;4941021;28;20042;-88
2021/12/24 01:13:59;;;;;;;128.27;46.25;;;6.60;99.90;;;;;;4941844;28;20039;-88
2021/12/24 01:16:43;;;;;;;138.50;45.92;;;6.70;99.90;;;;;;4973807;28;20187;-88
2021/12/24 01:19:18;;;;;;;131.95;46.05;;;6.50;99.90;;;;;;4943942;28;20049;-88
2021/12/24 01:22:05;;;;;;;123.75;44.40;;;6.60;99.90;;;;;;4942605;28;20101;-88
2021/12/24 01:24:40;;;;;;;117.43;42.63;;;6.60;99.90;;;;;;4941331;28;20059;-88
2021/12/24 01:27:19;;;;;;;115.68;43.47;;;6.60;99.90;;;;;;4926276;28;20074;-88
2021/12/24 01:30:05;;;;;;;112.68;43.08;;;6.50;99.90;;;;;;4924302;29;20046;-88
2021/12/24 01:38:37;;;;;;;92.10;38.65;;;6.60;99.90;;;;;;4924276;29;20051;-88
2021/12/24 01:41:05;;;;;;;97.95;39.30;;;6.60;99.90;;;;;;4923958;29;20058;-88
2021/12/24 01:43:31;;;;;;;92.45;37.67;;;6.60;99.90;;;;;;4939989;29;20137;-88
2021/12/24 01:45:59;;;;;;;89.13;37.67;;;6.70;99.90;;;;;;4937836;29;20039;-88
2021/12/24 01:48:25;;;;;;;92.82;38.75;;;6.80;99.90;;;;;;4938238;29;20043;-88
2021/12/24 01:50:52;;;;;;;88.95;39.03;;;6.80;99.90;;;;;;4922203;29;20134;-88
2021/12/24 01:53:21;;;;;;;93.95;39.22;;;6.70;99.90;;;;;;4938078;29;20035;-88
2021/12/24 01:55:48;;;;;;;89.13;37.45;;;6.70;99.90;;;;;;4937147;29;20510;-88
2021/12/24 01:58:19;;;;;;;90.05;37.13;;;6.80;99.90;;;;;;4938180;29;20086;-88
2021/12/24 02:00:47;;;;;;;75.53;35.80;;;6.80;99.90;;;;;;4941978;28;20043;-88
2021/12/24 02:03:13;;;;;;;84.90;37.60;;;6.90;99.90;;;;;;4973466;28;20050;-88
2021/12/24 02:05:40;;;;;;;76.15;34.72;;;7.20;99.90;;;;;;4924912;28;20051;-88
2021/12/24 02:08:07;;;;;;;78.38;35.10;;;6.90;99.90;;;;;;4941196;28;20243;-88
2021/12/24 02:10:33;;;;;;;84.90;36.60;;;6.90;99.90;;;;;;4940044;28;20133;-88
2021/12/24 02:12:59;;;;;;;77.22;35.25;;;6.90;99.90;;;;;;4925588;28;20038;-89
2021/12/24 02:15:36;;;;;;;76.10;35.55;;;6.90;99.90;;;;;;4940973;28;20047;-89
2021/12/24 02:18:33;;;;;;;72.82;35.05;;;7.00;99.90;;;;;;4957005;28;20101;-88
2021/12/24 02:29:07;;;;;;;59.40;30.90;;;7.10;99.90;;;;;;4959611;28;20398;-88
2021/12/24 02:31:32;;;;;;;60.40;30.20;;;7.00;99.90;;;;;;4940623;28;20042;-88
2021/12/24 02:33:58;;;;;;;64.75;31.65;;;7.10;99.90;;;;;;4956757;28;20125;-88
2021/12/24 02:36:24;;;;;;;59.05;30.88;;;7.10;99.90;;;;;;4924814;28;20046;-88
2021/12/24 02:38:51;;;;;;;58.75;29.30;;;7.20;99.90;;;;;;4972768;28;20042;-88
2021/12/24 02:41:20;;;;;;;63.53;32.38;;;7.20;99.90;;;;;;4939795;28;20059;-88
2021/12/24 02:43:47;;;;;;;66.32;31.98;;;7.70;99.90;;;;;;4956957;28;20494;-88
2021/12/24 02:46:24;;;;;;;54.85;30.25;;;7.20;99.90;;;;;;4972476;28;20101;-88
2021/12/24 02:54:03;;;;;;;48.08;26.88;;;7.30;99.90;;;;;;4927873;29;20050;-88
2021/12/24 02:56:35;;;;;;;42.75;25.52;;;7.40;99.90;;;;;;4955950;29;20039;-88
2021/12/24 02:59:04;;;;;;;;;;;7.40;99.90;;;;;;4941292;29;20078;-88
2021/12/24 03:01:34;;;;;;;51.50;25.92;;;7.50;99.90;;;;;;4941201;29;20380;-88
2021/12/24 03:04:00;;;;;;;47.90;26.55;;;7.50;99.90;;;;;;4941251;29;20424;-88
2021/12/24 03:06:32;;;;;;;50.03;27.08;;;7.50;99.90;;;;;;4956672;29;20043;-87
2021/12/24 03:08:58;;;;;;;46.47;24.00;;;7.50;99.90;;;;;;4940814;29;20101;-89
2021/12/24 03:11:25;;;;;;;47.63;26.27;;;7.50;99.90;;;;;;4955599;29;20045;-88
2021/12/24 03:13:52;;;;;;;48.45;27.05;;;7.60;99.90;;;;;;4924877;29;20086;-88
2021/12/24 03:16:19;;;;;;;49.75;26.70;;;7.50;99.90;;;;;;4924491;29;20047;-88
2021/12/24 03:18:46;;;;;;;53.55;27.08;;;7.50;99.90;;;;;;4956896;29;20582;-88
2021/12/24 03:21:21;;;;;;;57.42;27.80;;;7.50;99.90;;;;;;4908853;29;20089;-88
2021/12/24 03:26:30;;;;;;;49.17;25.67;;;7.60;99.90;;;;;;4939524;29;20138;-88
2021/12/24 03:28:56;;;;;;;48.47;25.48;;;7.60;99.90;;;;;;4926188;28;20120;-88
2021/12/24 03:31:21;;;;;;;49.33;25.38;;;7.60;99.90;;;;;;4943449;28;20046;-88
2021/12/24 03:33:48;;;;;;;48.50;25.77;;;7.70;99.90;;;;;;4943646;28;20551;-88
2021/12/24 03:36:15;;;;;;;46.50;24.13;;;7.70;99.90;;;;;;4943566;28;20042;-88
2021/12/24 03:38:41;;;;;;;50.95;25.95;;;7.80;99.90;;;;;;4927985;28;20039;-88
2021/12/24 03:41:07;;;;;;;56.72;27.17;;;7.80;99.90;;;;;;4942457;28;20145;-88
2021/12/24 03:43:33;;;;;;;57.20;26.70;;;7.80;99.90;;;;;;4927681;28;20074;-88
2021/12/24 03:46:03;;;;;;;63.55;28.33;;;7.80;99.90;;;;;;4959052;28;20113;-88
2021/12/24 03:56:28;;;;;;;56.63;25.70;;;8.00;99.90;;;;;;4960648;28;20051;-88
2021/12/24 03:58:53;;;;;;;51.20;25.17;;;8.00;99.90;;;;;;4943484;28;20450;-88
2021/12/24 04:01:19;;;;;;;54.17;25.70;;;8.00;99.90;;;;;;4954905;28;20043;-88
2021/12/24 04:03:45;;;;;;;51.97;25.55;;;8.00;99.90;;;;;;4939834;29;20406;-88
2021/12/24 04:06:11;;;;;;;48.58;25.20;;;8.00;99.90;;;;;;4953453;28;20482;-88
2021/12/24 04:08:37;;;;;;;50.75;23.85;;;8.00;99.90;;;;;;4957824;28;20457;-88
2021/12/24 04:11:04;;;;;;;47.63;23.38;;;8.00;99.90;;;;;;4957710;28;20039;-88
2021/12/24 04:13:31;;;;;;;42.63;23.13;;;8.10;99.90;;;;;;4958548;28;20549;-88
2021/12/24 04:15:56;;;;;;;41.70;22.40;;;8.10;99.90;;;;;;4958849;28;20525;-88
2021/12/24 04:18:37;;;;;;;41.30;22.05;;;8.20;99.90;;;;;;4958735;28;20047;-88
2021/12/24 04:26:35;;;;;;;47.70;24.45;;;8.30;99.90;;;;;;4957527;28;20050;-88
2021/12/24 04:29:01;;;;;;;51.00;24.95;;;8.30;99.90;;;;;;4958869;28;20505;-88
2021/12/24 04:31:40;;;;;;;50.88;26.45;;;8.20;99.90;;;;;;4958635;28;20078;-88
2021/12/24 04:34:06;;;;;;;49.72;24.95;;;8.40;99.90;;;;;;4944625;28;20038;-86
2021/12/24 04:39:36;;;;;;;54.42;27.75;;;8.30;99.90;;;;;;4958535;28;20499;-86
2021/12/24 05:03:41;;;;;;;77.93;35.33;;;8.40;99.90;;;;;;4960264;28;20043;-86
2021/12/24 05:08:50;;;;;;;76.85;35.28;;;8.40;99.90;;;;;;4957841;28;20125;-86
2021/12/24 05:11:17;;;;;;;82.13;37.22;;;8.40;99.90;;;;;;4942605;28;20043;-86
2021/12/24 05:13:43;;;;;;;73.03;36.30;;;8.40;99.90;;;;;;4973768;28;20103;-86
2021/12/24 05:16:24;;;;;;;79.53;36.97;;;8.40;99.90;;;;;;4925730;28;20078;-86
2021/12/24 05:24:04;;;;;;;76.25;37.30;;;8.40;99.90;;;;;;4957448;28;20050;-86
2021/12/24 05:26:32;;;;;;;80.55;35.60;;;8.40;99.90;;;;;;4972501;28;20417;-86
2021/12/24 05:28:58;;;;;;;80.47;37.53;;;8.40;99.90;;;;;;4973668;28;20482;-86
2021/12/24 05:31:25;;;;;;;79.80;36.97;;;8.40;99.90;;;;;;4973510;28;20125;-86
2021/12/24 05:33:51;;;;;;;65.97;34.03;;;8.50;99.90;;;;;;4925851;28;20101;-86
2021/12/24 05:36:18;;;;;;;76.63;36.90;;;8.50;99.90;;;;;;4941178;28;20038;-86
2021/12/24 05:38:44;;;;;;;64.57;31.98;;;8.40;99.90;;;;;;4973467;28;20051;-86
2021/12/24 05:41:10;;;;;;;67.80;33.72;;;8.50;99.90;;;;;;4956451;28;20139;-86
2021/12/24 05:43:36;;;;;;;68.03;34.25;;;8.50;99.90;;;;;;4973541;28;20042;-86
2021/12/24 05:46:03;;;;;;;67.15;34.15;;;8.40;99.90;;;;;;4941078;28;20038;-86
2021/12/24 05:48:29;;;;;;;67.22;33.40;;;8.50;99.90;;;;;;4973455;28;20125;-86
2021/12/24 05:50:55;;;;;;;67.03;33.58;;;8.50;99.90;;;;;;4957407;28;20074;-86
2021/12/24 05:53:21;;;;;;;69.05;34.58;;;8.40;99.90;;;;;;4957546;28;20097;-86
2021/12/24 05:55:47;;;;;;;70.85;34.85;;;8.50;99.90;;;;;;4940022;28;20086;-86
2021/12/24 05:58:13;;;;;;;74.88;35.55;;;8.50;99.90;;;;;;4925692;28;20094;-86
2021/12/24 06:00:40;;;;;;;68.78;34.80;;;8.50;99.90;;;;;;4956760;28;20039;-86
2021/12/24 06:03:07;;;;;;;81.93;37.05;;;8.80;99.90;;;;;;4925685;28;20047;-86
2021/12/24 06:05:36;;;;;;;69.85;35.67;;;8.50;99.90;;;;;;4924943;28;20042;-86
2021/12/24 06:08:04;;;;;;;77.68;35.70;;;8.50;99.90;;;;;;4925261;28;20134;-86
2021/12/24 06:10:30;;;;;;;74.03;35.65;;;8.50;99.90;;;;;;4940631;28;20508;-86
2021/12/24 06:12:56;;;;;;;69.68;36.15;;;8.50;99.90;;;;;;4957366;28;20121;-86
2021/12/24 06:15:25;;;;;;;62.97;34.97;;;8.40;99.90;;;;;;4941206;28;20410;-86
2021/12/24 06:17:54;;;;;;;73.75;36.22;;;8.50;99.90;;;;;;4925825;28;20046;-86
2021/12/24 06:20:20;;;;;;;63.08;33.92;;;8.50;99.90;;;;;;4957071;28;20553;-86
2021/12/24 06:22:47;;;;;;;72.80;34.83;;;8.50;99.90;;;;;;4973693;28;20498;-86
2021/12/24 06:25:14;;;;;;;66.82;33.13;;;8.50;99.90;;;;;;4940395;29;20094;-86
2021/12/24 06:27:39;;;;;;;62.47;31.98;;;8.50;99.90;;;;;;4941580;29;20051;-86
2021/12/24 06:30:07;;;;;;;60.72;30.25;;;8.50;99.90;;;;;;4957499;28;20089;-86
2021/12/24 06:32:33;;;;;;;53.55;28.67;;;8.50;99.90;;;;;;4957744;29;20399;-86
2021/12/24 06:34:59;;;;;;;57.92;27.63;;;8.50;99.90;;;;;;4926000;29;20487;-86
2021/12/24 06:37:25;;;;;;;51.80;26.75;;;8.50;99.90;;;;;;4957287;29;20043;-85
2021/12/24 06:39:51;;;;;;;47.30;26.15;;;8.50;99.90;;;;;;4957098;29;20047;-85
2021/12/24 06:42:18;;;;;;;49.92;26.33;;;8.50;99.90;;;;;;4956501;29;20039;-85
2021/12/24 06:44:43;;;;;;;49.72;25.45;;;8.50;99.90;;;;;;4952148;29;20039;-83
2021/12/24 06:47:09;;;;;;;48.13;24.05;;;8.50;99.90;;;;;;4956478;28;20492;-83
2021/12/24 06:49:35;;;;;;;44.42;23.90;;;8.50;99.90;;;;;;4956092;28;20091;-83
2021/12/24 06:52:02;;;;;;;48.30;24.35;;;8.50;99.90;;;;;;4953753;29;20504;-82
2021/12/24 06:54:27;;;;;;;49.88;24.52;;;8.50;99.90;;;;;;4933169;29;20039;-84
2021/12/24 06:56:53;;;;;;;43.92;24.08;;;8.50;99.90;;;;;;4947378;28;20658;-83
2021/12/24 06:59:19;;;;;;;45.47;24.23;;;8.50;99.90;;;;;;4952329;28;20126;-84
2021/12/24 07:01:45;;;;;;;49.85;25.02;;;8.50;99.90;;;;;;4956816;28;20043;-83
2021/12/24 07:04:11;;;;;;;50.22;25.20;;;8.50;99.90;;;;;;4956958;29;20058;-83
2021/12/24 07:06:43;;;;;;;50.05;25.30;;;8.50;99.90;;;;;;4937350;29;20078;-82
2021/12/24 07:09:09;;;;;;;50.10;24.63;;;8.50;99.90;;;;;;4956667;29;20074;-82
2021/12/24 07:11:34;;;;;;;46.90;24.42;;;8.50;99.90;;;;;;4955457;28;20036;-82
2021/12/24 07:14:00;;;;;;;50.47;24.77;;;8.50;99.90;;;;;;4956097;28;20054;-82
2021/12/24 07:16:26;;;;;;;45.70;23.02;;;8.40;99.90;;;;;;4923969;29;20050;-82
2021/12/24 07:18:52;;;;;;;41.05;21.70;;;8.40;99.90;;;;;;4953372;29;20522;-82
2021/12/24 07:21:17;;;;;;;46.65;22.88;;;8.40;99.90;;;;;;4955825;28;20046;-83
2021/12/24 07:23:43;;;;;;;42.78;22.75;;;8.50;99.90;;;;;;4956019;28;20082;-83
2021/12/24 07:26:09;;;;;;;40.50;20.63;;;8.50;99.90;;;;;;4954819;29;20130;-83
2021/12/24 07:28:34;;;;;;;40.17;20.90;;;8.50;99.90;;;;;;4937526;29;20039;-83
2021/12/24 07:31:00;;;;;;;40.22;20.13;;;8.40;99.90;;;;;;4955660;28;20047;-83
2021/12/24 07:33:26;;;;;;;40.20;20.80;;;8.40;99.90;;;;;;4924188;29;20114;-82
2021/12/24 07:35:52;;;;;;;38.55;19.70;;;8.40;99.90;;;;;;4923022;29;20039;-82
2021/12/24 07:38:17;;;;;;;41.20;19.45;;;8.40;99.90;;;;;;4921753;29;20406;-82
2021/12/24 07:40:44;;;;;;;40.60;17.58;;;8.50;99.90;;;;;;4954873;29;20118;-82
2021/12/24 07:43:11;;;;;;;36.60;17.50;;;8.50;99.90;;;;;;4956245;28;20046;-83
2021/12/24 07:45:38;;;;;;;33.38;16.52;;;8.40;99.90;;;;;;4956141;29;20043;-83
2021/12/24 07:48:15;;;;;;;34.55;17.35;;;8.40;99.90;;;;;;4924965;29;20135;-83
2021/12/24 07:53:14;;;;;;;31.83;16.40;;;8.40;99.90;;;;;;4956957;28;20511;-81
2021/12/24 07:55:40;;;;;;;37.08;15.35;;;8.40;99.90;;;;;;4955097;28;20134;-82
2021/12/24 07:58:07;;;;;;;36.92;15.40;;;8.40;99.90;;;;;;4940157;29;20473;-84
2021/12/24 08:00:35;;;;;;;36.13;15.85;;;8.40;99.90;;;;;;4949537;28;20130;-84
2021/12/24 08:03:02;;;;;;;26.73;13.88;;;8.40;99.90;;;;;;4924170;29;20468;-84
2021/12/24 08:05:27;;;;;;;31.02;14.00;;;8.40;99.90;;;;;;4953113;29;20510;-84
2021/12/24 08:07:54;;;;;;;30.38;13.82;;;8.40;99.90;;;;;;4954732;29;20042;-85
2021/12/24 08:10:23;;;;;;;28.33;13.02;;;8.40;99.90;;;;;;4953458;29;20526;-84
2021/12/24 08:12:50;;;;;;;32.92;13.05;;;8.50;99.90;;;;;;4938629;29;20451;-84
2021/12/24 08:15:17;;;;;;;29.08;13.55;;;8.40;99.90;;;;;;4954819;29;20047;-84
2021/12/24 08:17:43;;;;;;;28.80;13.13;;;8.40;99.90;;;;;;4920877;29;20039;-84
2021/12/24 08:20:10;;;;;;;26.33;12.90;;;8.40;99.90;;;;;;4921722;29;20042;-84
2021/12/24 08:22:36;;;;;;;27.40;12.50;;;8.40;99.90;;;;;;4969221;28;20047;-84
2021/12/24 08:25:05;;;;;;;25.77;12.00;;;8.40;99.90;;;;;;4954999;28;20047;-84
2021/12/24 08:27:33;;;;;;;26.05;11.75;;;8.40;99.90;;;;;;4957190;28;20050;-84
2021/12/24 08:29:59;;;;;;;24.05;11.50;;;8.40;99.90;;;;;;4942546;28;20043;-84
2021/12/24 08:32:25;;;;;;;26.25;11.38;;;8.40;99.90;;;;;;4958567;28;20537;-84
2021/12/24 08:34:52;;;;;;;25.63;10.57;;;8.30;99.90;;;;;;4942661;28;20039;-84
2021/12/24 08:37:18;;;;;;;30.63;11.93;;;8.40;99.90;;;;;;4942458;28;20487;-84
2021/12/24 08:39:44;;;;;;;30.58;10.82;;;8.30;99.90;;;;;;4971472;28;20051;-83
2021/12/24 08:42:10;;;;;;;26.38;11.23;;;8.40;99.90;;;;;;4951676;28;20043;-83
2021/12/24 08:44:37;;;;;;;27.40;10.20;;;8.30;99.90;;;;;;4951032;28;20054;-81
2021/12/24 08:47:05;;;;;;;20.13;8.45;;;8.40;99.90;;;;;;4951701;28;20402;-83
2021/12/24 08:49:32;;;;;;;28.10;10.52;;;8.40;99.90;;;;;;4922597;28;20043;-82
2021/12/24 08:51:58;;;;;;;29.05;10.68;;;8.30;99.90;;;;;;4941520;28;20130;-82
2021/12/24 08:54:24;;;;;;;30.52;11.32;;;8.30;99.90;;;;;;4957154;28;20030;-82
2021/12/24 08:56:54;;;;;;;33.28;11.60;;;8.30;99.90;;;;;;4951170;28;20113;-83
2021/12/24 08:59:20;;;;;;;32.70;12.02;;;8.40;99.90;;;;;;4938866;28;20053;-84
2021/12/24 09:01:46;;;;;;;34.35;12.63;;;8.40;99.90;;;;;;4954081;28;20462;-84
2021/12/24 09:04:13;;;;;;;31.88;13.13;;;8.30;99.90;;;;;;4974874;28;20070;-84
2021/12/24 09:06:40;;;;;;;36.90;12.98;;;8.40;99.90;;;;;;4958180;28;20035;-83
2021/12/24 09:09:08;;;;;;;32.05;12.82;;;8.40;99.90;;;;;;4950742;28;20034;-83
2021/12/24 09:11:41;;;;;;;35.22;12.77;;;8.40;99.90;;;;;;4954154;28;20126;-83
2021/12/24 09:14:07;;;;;;;31.42;13.02;;;8.40;99.90;;;;;;4961117;28;20042;-83
2021/12/24 09:16:35;;;;;;;37.55;14.05;;;8.40;99.90;;;;;;4936334;28;20085;-87
2021/12/24 09:19:06;;;;;;;33.67;12.82;;;8.40;99.90;;;;;;4965123;28;20073;-86
2021/12/24 09:21:33;;;;;;;32.17;12.15;;;8.50;99.90;;;;;;4930944;28;20039;-85
2021/12/24 09:24:00;;;;;;;37.20;12.52;;;8.50;99.90;;;;;;4963726;28;20446;-86
2021/12/24 09:26:29;;;;;;;27.83;11.40;;;8.50;99.90;;;;;;4951312;28;20573;-86
2021/12/24 09:28:59;;;;;;;32.17;12.85;;;8.50;99.90;;;;;;4952311;28;20487;-85
2021/12/24 09:31:26;;;;;;;28.20;11.98;;;8.40;99.90;;;;;;4960352;28;20041;-85
2021/12/24 09:33:52;;;;;;;29.77;11.82;;;8.50;99.90;;;;;;4944230;28;20039;-85
2021/12/24 09:36:24;;;;;;;31.80;12.38;;;8.50;99.90;;;;;;4944036;28;20120;-86
2021/12/24 09:38:50;;;;;;;26.07;10.47;;;8.50;99.90;;;;;;4952973;28;20038;-85
2021/12/24 09:41:16;;;;;;;30.85;10.48;;;8.50;99.90;;;;;;4943176;28;20085;-85
2021/12/24 09:43:42;;;;;;;29.05;10.45;;;8.50;99.90;;;;;;4962267;28;20070;-85
2021/12/24 09:46:07;;;;;;;27.77;10.43;;;8.50;99.90;;;;;;4945386;28;20046;-85
2021/12/24 09:48:33;;;;;;;26.77;10.05;;;8.50;99.90;;;;;;4942719;28;20126;-86
2021/12/24 09:50:59;;;;;;;29.13;10.82;;;8.50;99.90;;;;;;4967552;28;20486;-86
2021/12/24 09:53:25;;;;;;;30.67;11.07;;;8.50;99.90;;;;;;4956885;28;20054;-85
2021/12/24 09:55:51;;;;;;;26.80;10.65;;;8.50;99.90;;;;;;4949266;28;20053;-85
2021/12/24 09:58:17;;;;;;;30.45;11.50;;;8.50;99.90;;;;;;4941405;28;20051;-85
2021/12/24 10:00:43;;;;;;;29.73;11.93;;;8.50;99.90;;;;;;4955754;28;20491;-85
2021/12/24 10:03:09;;;;;;;30.58;11.95;;;8.40;99.90;;;;;;4956506;28;20398;-85
2021/12/24 10:05:41;;;;;;;29.58;12.45;;;8.40;99.90;;;;;;4924422;28;20125;-86
2021/12/24 10:08:17;;;;;;;30.25;12.20;;;8.40;99.90;;;;;;4957452;28;20045;-85
2021/12/24 10:10:45;;;;;;;32.85;12.68;;;8.40;99.90;;;;;;4956509;28;20038;-85
2021/12/24 10:13:31;;;;;;;33.47;11.88;;;8.40;99.90;;;;;;4957300;28;20053;-85
2021/12/24 10:16:08;;;;;;;34.60;11.90;;;8.40;99.90;;;;;;4962442;28;20051;-85
2021/12/24 10:18:42;;;;;;;32.03;12.52;;;8.30;99.90;;;;;;4956408;28;20043;-85
2021/12/24 10:21:15;;;;;;;32.60;12.15;;;8.40;99.90;;;;;;4937700;29;20039;-85
2021/12/24 10:23:42;;;;;;;34.55;12.35;;;8.40;99.90;;;;;;4938137;29;20047;-86
2021/12/24 10:26:19;;;;;;;29.20;12.88;;;8.40;99.90;;;;;;4936784;29;20052;-85
2021/12/24 10:28:51;;;;;;;35.03;12.43;;;8.40;99.90;;;;;;4939392;29;20089;-85
2021/12/24 10:31:22;;;;;;;32.58;11.98;;;8.50;99.90;;;;;;4923092;29;20047;-87
2021/12/24 10:34:07;;;;;;;30.83;12.00;;;8.50;99.90;;;;;;4939434;29;20368;-85
2021/12/24 10:36:49;;;;;;;30.15;11.35;;;8.40;99.90;;;;;;4937522;28;20102;-84
2021/12/24 10:39:18;;;;;;;;;;;8.50;99.90;;;;;;4946641;28;20105;-84
2021/12/24 10:41:48;;;;;;;29.63;12.07;;;8.50;99.90;;;;;;4967020;28;19918;-85
2021/12/24 10:44:21;;;;;;;32.13;12.43;;;8.50;99.90;;;;;;4950076;28;20418;-85
2021/12/24 10:47:06;;;;;;;33.50;11.82;;;8.50;99.90;;;;;;4946174;28;20495;-85
2021/12/24 10:49:52;;;;;;;28.30;12.25;;;8.50;99.90;;;;;;4947077;29;20086;-85
2021/12/24 10:54:57;;;;;;;30.95;12.43;;;8.60;99.90;;;;;;4953291;28;20062;-85
2021/12/24 10:57:25;;;;;;;32.03;11.73;;;8.60;99.90;;;;;;4971103;28;20047;-85
2021/12/24 10:59:54;;;;;;;33.75;12.48;;;8.50;99.90;;;;;;4966398;28;20126;-85
2021/12/24 11:02:23;;;;;;;34.45;13.25;;;8.50;99.90;;;;;;4960429;28;20534;-85
2021/12/24 11:04:50;;;;;;;34.90;12.43;;;8.50;99.90;;;;;;4960116;28;20038;-85
2021/12/24 11:07:33;;;;;;;32.05;13.00;;;8.50;99.90;;;;;;4958836;28;20058;-84
2021/12/24 11:10:20;;;;;;;35.95;14.27;;;8.50;99.90;;;;;;4978225;28;20045;-83
2021/12/24 11:12:49;;;;;;;43.05;15.48;;;8.50;99.90;;;;;;4966111;28;20039;-83
2021/12/24 11:15:28;;;;;;;32.67;12.15;;;8.40;99.90;;;;;;4980633;28;20038;-83
2021/12/24 11:17:56;;;;;;;9.45;4.22;;;8.40;99.90;;;;;;4971616;28;20102;-83
2021/12/24 11:20:23;;;;;;;38.17;21.77;;;8.30;99.90;;;;;;4950884;28;20130;-86
2021/12/24 11:22:56;;;;;;;7.20;3.22;;;7.80;99.90;;;;;;4958592;28;20054;-84
2021/12/24 11:25:24;;;;;;;10.70;5.32;;;7.50;99.90;;;;;;4963320;28;20055;-83
2021/12/24 11:27:50;;;;;;;17.83;9.25;;;7.30;99.90;;;;;;4953742;29;20051;-84
2021/12/24 11:30:17;;;;;;;58.00;31.88;;;7.10;99.90;;;;;;4961537;28;20043;-83
2021/12/24 11:32:45;;;;;;;19.67;11.00;;;6.90;99.90;;;;;;4964869;28;20035;-83
2021/12/24 11:35:14;;;;;;;7.15;4.80;;;6.70;99.90;;;;;;4951854;28;20046;-83
2021/12/24 11:37:44;;;;;;;11.98;8.73;;;6.90;99.90;;;;;;4962990;28;20043;-83
2021/12/24 11:40:18;;;;;;;12.70;9.13;;;6.50;99.90;;;;;;4963257;28;20125;-85
2021/12/24 11:42:51;;;;;;;16.52;12.80;;;6.50;99.90;;;;;;4958391;28;20039;-85
2021/12/24 11:45:20;;;;;;;18.40;14.52;;;6.40;99.90;;;;;;4974408;28;20498;-87
2021/12/24 11:47:46;;;;;;;31.75;22.45;;;6.40;99.90;;;;;;4941714;28;20031;-85
2021/12/24 11:50:12;;;;;;;35.22;25.13;;;6.30;99.90;;;;;;4957865;28;20039;-84
2021/12/24 11:52:38;;;;;;;50.78;33.78;;;6.30;99.90;;;;;;4937824;28;20040;-83
2021/12/24 11:55:04;;;;;;;16.02;11.52;;;6.30;99.90;;;;;;4940863;28;20039;-85
2021/12/24 11:57:30;;;;;;;82.72;50.90;;;6.30;99.90;;;;;;4954922;28;20035;-84
2021/12/24 11:59:56;;;;;;;52.95;32.33;;;6.30;99.90;;;;;;4924257;28;20399;-84
2021/12/24 12:02:35;;;;;;;14.82;9.90;;;6.30;99.90;;;;;;4954598;28;20033;-84
2021/12/24 12:05:35;;;;;;;29.95;23.10;;;6.20;99.90;;;;;;4946496;28;20090;-85
2021/12/24 12:08:28;;;;;;;39.67;35.80;;;6.20;99.90;;;;;;4924165;28;20494;-85
2021/12/24 12:11:05;;;;;;;9.23;7.50;;;6.10;99.90;;;;;;4941420;28;20058;-85
2021/12/24 12:13:45;;;;;;;28.10;25.60;;;6.10;99.90;;;;;;4946066;28;20097;-85
2021/12/24 12:16:23;;;;;;;5.10;2.97;;;6.20;99.90;;;;;;4954666;28;20449;-85
2021/12/24 12:19:08;;;;;;;8.77;7.88;;;6.10;99.90;;;;;;4957949;28;20043;-85
2021/12/24 12:21:40;;;;;;;16.48;14.90;;;6.10;99.90;;;;;;4951721;28;20043;-86
2021/12/24 12:26:43;;;;;;;7.45;5.57;;;6.10;99.90;;;;;;4954616;29;20061;-85
2021/12/24 12:29:32;;;;;;;5.68;3.45;;;6.10;99.90;;;;;;4962861;28;20067;-85
2021/12/24 12:32:12;;;;;;;6.70;4.25;;;6.00;99.90;;;;;;4968259;28;20561;-85
2021/12/24 12:34:41;;;;;;;5.60;3.45;;;6.00;99.90;;;;;;4954206;28;20035;-86
2021/12/24 12:37:15;;;;;;;6.50;4.13;;;6.00;99.90;;;;;;4955324;28;20057;-84
2021/12/24 12:39:41;;;;;;;6.07;3.95;;;6.10;99.90;;;;;;4949981;28;20090;-84
2021/12/24 12:42:08;;;;;;;9.98;6.47;;;6.10;99.90;;;;;;4947606;28;20097;-84
2021/12/24 12:44:35;;;;;;;6.93;5.00;;;6.10;99.90;;;;;;4963866;28;20114;-84
2021/12/24 12:47:17;;;;;;;5.60;3.50;;;6.20;99.90;;;;;;4955429;28;20043;-85
2021/12/24 12:49:43;;;;;;;6.53;4.38;;;6.10;99.90;;;;;;4960828;28;20035;-85
2021/12/24 12:52:35;;;;;;;6.60;4.53;;;6.20;99.90;;;;;;4930008;28;20034;-84
2021/12/24 12:55:02;;;;;;;6.32;3.88;;;6.10;99.90;;;;;;4975345;28;20050;-84
2021/12/24 12:57:36;;;;;;;7.00;4.57;;;6.10;99.90;;;;;;4945663;28;20166;-84
2021/12/24 13:00:17;;;;;;;6.30;4.28;;;6.10;99.90;;;;;;4952147;28;20073;-83
2021/12/24 13:05:42;;;;;;;6.68;4.25;;;6.10;99.90;;;;;;4960730;28;20520;-86
2021/12/24 13:08:12;;;;;;;7.35;4.78;;;6.10;99.90;;;;;;4942189;28;20059;-86
2021/12/24 13:10:38;;;;;;;6.80;4.55;;;6.10;99.90;;;;;;4951296;28;20047;-84
2021/12/24 13:13:06;;;;;;;7.18;4.80;;;6.00;99.90;;;;;;4959505;28;20039;-84
2021/12/24 13:15:42;;;;;;;7.18;5.13;;;6.00;99.90;;;;;;4945852;28;20045;-84
2021/12/24 13:18:28;;;;;;;6.85;4.90;;;6.00;99.90;;;;;;4918616;28;20038;-84
2021/12/24 13:23:39;;;;;;;9.80;5.97;;;6.00;99.90;;;;;;4953415;28;20101;-85
2021/12/24 13:26:11;;;;;;;8.65;5.85;;;6.00;99.90;;;;;;4964782;28;20074;-84
2021/12/24 13:28:54;;;;;;;8.20;5.68;;;6.00;99.90;;;;;;4961788;28;20521;-85
2021/12/24 13:31:19;;;;;;;8.93;6.05;;;6.00;99.90;;;;;;4961422;28;20034;-84
2021/12/24 13:33:48;;;;;;;9.00;6.20;;;6.10;99.90;;;;;;4953081;28;20053;-83
2021/12/24 13:36:14;;;;;;;8.63;6.43;;;6.00;99.90;;;;;;4967142;28;20049;-83
2021/12/24 13:38:40;;;;;;;10.35;7.10;;;6.10;99.90;;;;;;4946424;29;20514;-84
2021/12/24 13:41:06;;;;;;;10.10;7.57;;;6.10;99.90;;;;;;4962740;28;20398;-84
2021/12/24 13:43:37;;;;;;;10.75;7.60;;;6.00;99.90;;;;;;4934753;28;20050;-84
2021/12/24 13:46:11;;;;;;;10.80;7.97;;;6.00;99.90;;;;;;4947453;28;20105;-84
2021/12/24 13:48:56;;;;;;;9.70;7.25;;;6.10;99.90;;;;;;4948983;28;20096;-84
2021/12/24 13:56:40;;;;;;;10.30;7.50;;;6.10;99.90;;;;;;4954257;28;20049;-85
2021/12/24 13:59:07;;;;;;;10.77;8.07;;;6.20;99.90;;;;;;4941219;28;20521;-85
2021/12/24 14:01:34;;;;;;;10.20;7.63;;;6.20;99.90;;;;;;4940504;28;20056;-84
2021/12/24 14:04:01;;;;;;;10.20;7.35;;;6.20;99.90;;;;;;4949104;28;20445;-85
2021/12/24 14:06:33;;;;;;;10.43;7.38;;;6.30;99.90;;;;;;4926385;28;20043;-85
2021/12/24 14:09:16;;;;;;;10.48;7.70;;;6.20;99.90;;;;;;4962777;28;20035;-84
2021/12/24 14:11:43;;;;;;;9.70;7.18;;;6.30;99.90;;;;;;4962532;28;20499;-85
2021/12/24 14:14:14;;;;;;;10.65;7.63;;;6.30;99.90;;;;;;4947052;28;20054;-86
2021/12/24 14:19:19;;;;;;;10.93;7.20;;;6.30;99.90;;;;;;4958705;28;20573;-84
2021/12/24 14:21:47;;;;;;;9.77;6.88;;;6.30;99.90;;;;;;4946237;28;20042;-84
2021/12/24 14:24:27;;;;;;;10.77;7.55;;;6.20;99.90;;;;;;4950436;28;20513;-85
2021/12/24 14:27:02;;;;;;;9.82;7.63;;;6.20;99.90;;;;;;4960917;28;20130;-86
2021/12/24 14:29:36;;;;;;;10.40;7.22;;;6.30;99.90;;;;;;4949300;28;20046;-85
2021/12/24 14:32:17;;;;;;;10.07;6.57;;;6.30;99.90;;;;;;4962368;28;20096;-85
2021/12/24 14:34:55;;;;;;;8.68;6.20;;;6.30;99.90;;;;;;4949397;28;20118;-86
2021/12/24 14:37:21;;;;;;;9.45;6.70;;;6.20;99.90;;;;;;4961156;28;20062;-86
2021/12/24 14:39:52;;;;;;;9.98;6.40;;;6.20;99.90;;;;;;4963996;28;20046;-86
2021/12/24 14:42:30;;;;;;;8.68;5.68;;;6.20;99.90;;;;;;4966112;28;20047;-88
2021/12/24 14:45:15;;;;;;;8.27;5.35;;;6.20;99.90;;;;;;4949418;28;20125;-87